No Stress — J8Y3742 — position and weather

sailwx.info

Track history (hours):
 
Tides and Currents Weather Stations Pressure Air Temp Water Temp Dewpoint Dewpoint Depression Visibility Wind Speed Wind Dir Waves Ship Positions

No Stress

Last reported at 2018-Apr-25 14:24 UTC. Time now 2018-May-22 02:22 UTC.
Position N 14°35' W 061°09'.
Warning: this ship's position is 26 days out of date.

Length 16 m.

Type: Pleasure craft. MMSI: 375272000.

Date/timePositionNaut miles runAvg speedWind from/ knotsBaromVisibWave heightAir tempDewpointWater temp
2018-Apr-25 14:24N 14°35' W 061°09'7 5.3
2018-Apr-25 13:07N 14°30' W 061°06'5 0.3
2018-Apr-24 20:15N 14°26' W 061°02'2 7.3
2018-Apr-24 20:00N 14°27' W 061°00'4 8.0
2018-Apr-24 19:30N 14°27' W 060°56'4 7.5
2018-Apr-24 19:00N 14°28' W 060°52'  
2018-Apr-21 00:56N 14°28' W 060°52'0 0.0
2018-Apr-21 00:29N 14°28' W 060°52'0 0.0
2018-Apr-20 23:59N 14°28' W 060°52'0 0.0
2018-Apr-20 23:29N 14°28' W 060°52'0 0.0
2018-Apr-20 22:59N 14°28' W 060°52'0 0.0
2018-Apr-20 22:29N 14°28' W 060°52'  
2018-Apr-18 00:47N 14°28' W 060°52'0 0.0
2018-Apr-18 00:29N 14°28' W 060°52'0 0.0
2018-Apr-17 23:59N 14°28' W 060°52'0 0.0
2018-Apr-17 23:29N 14°28' W 060°52'0 0.0
2018-Apr-17 22:59N 14°28' W 060°52'0 0.0
2018-Apr-17 19:08N 14°28' W 060°52'0 2.5
2018-Apr-17 19:00N 14°28' W 060°53'3 6.1
2018-Apr-17 18:30N 14°27' W 060°56'3 5.9
2018-Apr-17 18:00N 14°27' W 060°59'3 5.9
2018-Apr-17 17:28N 14°27' W 061°02'19 0.8
2018-Apr-16 16:17N 14°44' W 061°11'0 0.4
2018-Apr-16 16:01N 14°44' W 061°11'0 0.0
2018-Apr-15 18:20N 14°44' W 061°11'0 0.0
2018-Apr-15 17:59N 14°44' W 061°11'0 0.0
2018-Apr-15 17:29N 14°44' W 061°11'  
Track history (hours):
 
Tides and Currents Weather Stations Pressure Air Temp Water Temp Dewpoint Dewpoint Depression Visibility Wind Speed Wind Dir Waves Ship Positions

No Stress

Last reported at 2018-Apr-25 14:24 UTC. Time now 2018-May-22 02:22 UTC.
Position N 14°35' W 061°09'.
Warning: this ship's position is 26 days out of date.

Length 16 m.

Type: Pleasure craft. MMSI: 375272000.

Date/timePositionNaut miles runAvg speedWind from/ knotsBaromVisibWave heightAir tempDewpointWater temp
2018-Apr-25 14:24N 14°35' W 061°09'7 5.3
2018-Apr-25 13:07N 14°30' W 061°06'5 0.3
2018-Apr-24 20:15N 14°26' W 061°02'2 7.3
2018-Apr-24 20:00N 14°27' W 061°00'4 8.0
2018-Apr-24 19:30N 14°27' W 060°56'4 7.5
2018-Apr-24 19:00N 14°28' W 060°52'  
2018-Apr-21 00:56N 14°28' W 060°52'0 0.0
2018-Apr-21 00:29N 14°28' W 060°52'0 0.0
2018-Apr-20 23:59N 14°28' W 060°52'0 0.0
2018-Apr-20 23:29N 14°28' W 060°52'0 0.0
2018-Apr-20 22:59N 14°28' W 060°52'0 0.0
2018-Apr-20 22:29N 14°28' W 060°52'  
2018-Apr-18 00:47N 14°28' W 060°52'0 0.0
2018-Apr-18 00:29N 14°28' W 060°52'0 0.0
2018-Apr-17 23:59N 14°28' W 060°52'0 0.0
2018-Apr-17 23:29N 14°28' W 060°52'0 0.0
2018-Apr-17 22:59N 14°28' W 060°52'0 0.0
2018-Apr-17 19:08N 14°28' W 060°52'0 2.5
2018-Apr-17 19:00N 14°28' W 060°53'3 6.1
2018-Apr-17 18:30N 14°27' W 060°56'3 5.9
2018-Apr-17 18:00N 14°27' W 060°59'3 5.9
2018-Apr-17 17:28N 14°27' W 061°02'19 0.8
2018-Apr-16 16:17N 14°44' W 061°11'0 0.4
2018-Apr-16 16:01N 14°44' W 061°11'0 0.0
2018-Apr-15 18:20N 14°44' W 061°11'0 0.0
2018-Apr-15 17:59N 14°44' W 061°11'0 0.0
2018-Apr-15 17:29N 14°44' W 061°11'  

Dump ship's entire track history